createdAt,value
2023-01-09T04:01:55.549Z,100.00
2023-01-09T04:05:06.246Z,100.00
2023-01-09T04:08:16.813Z,100.00
2023-01-09T04:11:26.887Z,100.00
2023-01-09T04:14:36.900Z,100.00
2023-01-09T04:17:48.164Z,100.00
2023-01-09T04:20:58.236Z,100.00
2023-01-09T04:24:08.823Z,100.00
2023-01-09T04:27:18.939Z,100.00
2023-01-09T04:30:28.880Z,100.00
2023-01-09T04:33:40.506Z,100.00
2023-01-09T04:36:50.464Z,100.00
2023-01-09T04:40:00.488Z,100.00
2023-01-09T04:43:10.421Z,100.00
2023-01-09T04:46:20.421Z,100.00
2023-01-09T04:49:31.934Z,100.00
2023-01-09T04:52:42.053Z,100.00
2023-01-09T04:55:51.984Z,100.00
2023-01-09T04:59:01.999Z,100.00
2023-01-09T05:02:12.288Z,100.00
2023-01-09T05:05:23.995Z,100.00
2023-01-09T05:08:33.975Z,100.00
2023-01-09T05:11:43.952Z,100.00
2023-01-09T05:14:54.003Z,100.00
2023-01-09T05:18:04.160Z,100.00
2023-01-09T05:21:15.913Z,100.00
2023-01-09T05:24:25.891Z,100.00
2023-01-09T05:27:35.979Z,100.00
2023-01-09T05:30:48.270Z,100.00
2023-01-09T05:33:59.334Z,100.00
2023-01-09T05:37:10.754Z,100.00
2023-01-09T05:40:23.040Z,100.00
2023-01-09T05:43:33.258Z,100.00
2023-01-09T05:46:43.200Z,100.00
2023-01-09T05:49:53.346Z,100.00
2023-01-09T05:53:04.721Z,100.00
2023-01-09T05:56:14.985Z,100.00
2023-01-09T05:59:25.121Z,100.00
2023-01-09T06:02:35.457Z,99.83
2023-01-09T06:05:45.742Z,99.93
2023-01-09T06:08:57.049Z,100.00
2023-01-09T06:12:07.457Z,100.00
2023-01-09T06:15:17.612Z,100.00
2023-01-09T06:18:27.727Z,100.00
2023-01-09T06:21:37.845Z,100.00
2023-01-09T06:24:49.299Z,100.00
2023-01-09T06:27:59.273Z,100.00
2023-01-09T06:31:09.410Z,100.00
2023-01-09T06:34:19.523Z,100.00
2023-01-09T06:37:29.678Z,100.00
2023-01-09T06:40:41.030Z,100.00
2023-01-09T06:43:51.010Z,100.00
2023-01-09T06:47:01.067Z,100.00
2023-01-09T06:50:11.931Z,100.00
2023-01-09T06:53:22.174Z,100.00
2023-01-09T06:56:33.674Z,100.00
2023-01-09T06:59:43.719Z,100.00
2023-01-09T07:02:53.818Z,100.00
2023-01-09T07:06:06.719Z,100.00
2023-01-09T07:09:16.843Z,100.00
2023-01-09T07:12:28.252Z,100.00
2023-01-09T07:15:38.493Z,100.00
2023-01-09T07:18:48.800Z,100.00
2023-01-09T07:21:58.744Z,100.00
2023-01-09T07:25:09.264Z,100.00
2023-01-09T07:28:20.670Z,100.00
2023-01-09T07:31:30.677Z,100.00
2023-01-09T07:34:40.798Z,100.00
2023-01-09T07:37:50.928Z,100.00
2023-01-09T07:41:01.003Z,100.00
2023-01-09T07:44:12.836Z,100.00
2023-01-09T11:34:05.653Z,94.60
2023-01-09T11:37:27.766Z,93.78
2023-01-09T11:40:46.972Z,94.15
2023-01-09T11:44:02.566Z,93.41
2023-01-09T11:47:27.657Z,91.86
2023-01-09T11:50:39.338Z,92.52
2023-01-09T11:54:01.917Z,92.81
2023-01-09T11:57:13.644Z,91.70
2023-01-09T12:00:27.445Z,89.49
2023-01-09T12:03:53.410Z,90.23
2023-01-09T12:07:22.214Z,90.53
2023-01-09T12:10:49.077Z,88.41
2023-01-09T12:14:19.219Z,89.10
2023-01-09T12:17:47.610Z,86.99
2023-01-09T12:21:12.798Z,86.30
2023-01-09T12:24:41.573Z,89.88
2023-01-09T12:28:12.145Z,89.55
2023-01-09T12:31:36.679Z,90.83
2023-01-09T12:34:56.208Z,90.51
2023-01-09T12:38:22.159Z,89.98
2023-01-09T12:41:49.454Z,88.26
2023-01-09T12:45:05.087Z,87.08
2023-01-09T12:48:28.516Z,86.28
2023-01-09T12:51:43.234Z,85.17
2023-01-09T12:54:58.144Z,86.72
2023-01-09T12:58:17.432Z,85.83
2023-01-09T13:01:33.387Z,87.02
2023-01-09T13:04:50.379Z,86.40
2023-01-09T13:08:04.446Z,86.67
2023-01-09T13:11:21.003Z,86.45
2023-01-09T13:14:45.676Z,88.72
2023-01-09T13:18:01.349Z,90.21
2023-01-09T13:21:13.860Z,93.65
2023-01-09T13:24:30.803Z,95.70
2023-01-09T13:27:42.506Z,95.64
2023-01-09T13:31:10.308Z,96.37
2023-01-09T13:34:23.016Z,97.03
2023-01-09T13:37:35.539Z,95.77
2023-01-09T13:40:45.610Z,98.00
2023-01-09T13:43:58.131Z,99.37
2023-01-09T13:47:17.655Z,99.69
2023-01-09T13:50:28.792Z,100.00
2023-01-09T13:53:48.431Z,100.00
2023-01-09T13:57:25.240Z,100.00
2023-01-09T14:00:50.147Z,100.00
2023-01-09T14:04:37.382Z,100.00
2023-01-09T14:07:49.605Z,99.75
2023-01-09T14:11:02.080Z,99.84
2023-01-09T14:14:26.760Z,100.00
2023-01-09T14:17:38.786Z,100.00
2023-01-09T14:20:59.038Z,100.00
2023-01-09T14:24:13.278Z,100.00
2023-01-09T14:27:47.207Z,100.00
2023-01-09T14:31:06.582Z,100.00
2023-01-09T14:34:32.514Z,100.00
2023-01-09T14:37:47.109Z,100.00
2023-01-09T14:41:01.908Z,100.00
2023-01-09T14:44:26.835Z,100.00
2023-01-09T14:47:42.894Z,100.00
2023-01-09T14:50:55.857Z,100.00
2023-01-09T14:54:29.077Z,100.00
2023-01-09T14:57:39.298Z,100.00
2023-01-09T15:00:53.874Z,100.00
2023-01-09T15:04:07.752Z,100.00
2023-01-09T15:07:23.575Z,100.00
2023-01-09T15:10:38.246Z,100.00
2023-01-09T15:13:51.349Z,100.00
2023-01-09T15:17:02.274Z,100.00
2023-01-09T15:20:19.593Z,100.00
2023-01-09T15:23:31.236Z,100.00
2023-01-09T15:26:42.622Z,100.00
2023-01-09T15:29:53.717Z,100.00
2023-01-09T15:33:08.646Z,100.00
2023-01-09T15:36:25.837Z,100.00
2023-01-09T15:39:39.807Z,100.00
2023-01-09T15:42:57.539Z,100.00
2023-01-09T15:46:08.242Z,100.00
2023-01-09T15:49:19.476Z,100.00
2023-01-09T15:52:30.119Z,100.00
2023-01-09T15:55:40.456Z,100.00
2023-01-09T15:58:52.864Z,100.00
2023-01-09T16:02:17.466Z,100.00
2023-01-09T16:05:28.188Z,100.00
2023-01-09T16:08:40.872Z,100.00
2023-01-09T16:11:53.832Z,100.00
2023-01-09T16:15:05.611Z,100.00
2023-01-09T16:18:23.040Z,100.00
2023-01-09T16:21:36.224Z,100.00
2023-01-09T16:24:48.550Z,100.00
2023-01-09T16:31:32.618Z,100.00
2023-01-09T16:34:44.286Z,100.00
2023-01-09T16:37:54.329Z,100.00
2023-01-09T16:41:17.070Z,100.00
2023-01-09T16:44:27.990Z,100.00
2023-01-09T16:47:39.372Z,100.00
2023-01-09T16:50:49.513Z,100.00
2023-01-09T16:53:59.665Z,100.00
2023-01-09T16:57:12.659Z,100.00
2023-01-09T17:00:22.950Z,100.00
2023-01-09T17:03:37.237Z,100.00
2023-01-09T17:06:48.871Z,100.00
2023-01-09T17:09:58.911Z,100.00
2023-01-09T17:13:08.860Z,100.00
2023-01-09T17:16:19.593Z,100.00
2023-01-09T17:19:30.856Z,100.00
2023-01-09T17:22:40.826Z,100.00
2023-01-09T17:26:05.754Z,100.00
2023-01-09T17:29:15.881Z,100.00
2023-01-09T17:32:25.978Z,100.00
2023-01-09T17:35:37.207Z,100.00
2023-01-09T17:38:47.380Z,100.00
2023-01-09T17:41:59.121Z,100.00
2023-01-09T17:45:09.630Z,100.00
2023-01-09T17:48:21.591Z,100.00
2023-01-09T17:51:33.229Z,100.00
2023-01-09T17:54:43.309Z,100.00
2023-01-09T17:57:53.428Z,99.42
2023-01-09T18:01:03.406Z,98.80
2023-01-09T18:04:13.453Z,98.79
2023-01-09T18:07:24.847Z,98.49
2023-01-09T18:10:34.959Z,99.20
2023-01-09T18:13:45.220Z,99.00
2023-01-09T18:16:55.363Z,99.26
2023-01-09T18:20:06.140Z,100.00
2023-01-09T18:23:18.463Z,100.00
2023-01-09T18:26:28.737Z,100.00
2023-01-09T18:29:38.825Z,100.00
2023-01-09T18:32:48.940Z,100.00
2023-01-09T18:36:07.489Z,100.00
2023-01-09T18:39:18.854Z,100.00
2023-01-09T18:42:28.830Z,100.00
2023-01-09T18:45:39.756Z,100.00
2023-01-09T18:48:52.579Z,100.00
2023-01-09T18:52:02.813Z,100.00
2023-01-09T18:55:14.339Z,100.00
2023-01-09T18:58:24.448Z,100.00
2023-01-09T19:01:34.718Z,100.00
2023-01-09T19:04:44.776Z,100.00
2023-01-09T19:07:55.085Z,100.00
2023-01-09T19:11:06.835Z,100.00
2023-01-09T19:14:16.973Z,100.00
2023-01-09T19:17:27.162Z,100.00
2023-01-09T19:20:39.270Z,100.00
2023-01-09T19:23:50.601Z,100.00
2023-01-09T19:27:01.856Z,100.00
2023-01-09T19:30:13.360Z,100.00
2023-01-09T19:33:24.600Z,100.00
2023-01-09T19:36:34.984Z,100.00
2023-01-09T19:39:46.670Z,100.00
2023-01-09T19:42:59.234Z,100.00
2023-01-09T19:46:10.811Z,100.00
2023-01-09T19:49:20.832Z,100.00
2023-01-09T19:52:31.074Z,100.00
2023-01-09T19:55:41.399Z,100.00
2023-01-09T19:58:54.894Z,100.00
2023-01-09T20:02:05.250Z,100.00
2023-01-09T20:05:15.320Z,100.00
2023-01-09T20:08:25.515Z,100.00
2023-01-09T20:11:35.683Z,100.00
2023-01-09T20:14:47.088Z,100.00
2023-01-09T20:17:57.048Z,100.00
2023-01-09T20:21:07.164Z,100.00
2023-01-09T20:24:17.779Z,100.00
2023-01-09T20:27:27.774Z,100.00
2023-01-09T20:30:42.805Z,100.00
2023-01-09T20:33:55.089Z,100.00
2023-01-09T20:37:05.223Z,100.00
2023-01-09T20:40:15.391Z,100.00
2023-01-09T20:43:26.517Z,100.00
2023-01-09T20:46:40.111Z,100.00
2023-01-09T20:49:50.132Z,100.00
2023-01-09T20:53:00.084Z,100.00
2023-01-09T20:56:10.743Z,100.00
2023-01-09T20:59:22.377Z,100.00
2023-01-09T21:02:34.073Z,100.00
2023-01-09T21:05:44.461Z,100.00
2023-01-09T21:08:54.556Z,100.00
2023-01-09T21:12:24.623Z,100.00
